sensor_id;sensor_type;location;lat;lon;timestamp;P1;durP1;ratioP1;P2;durP2;ratioP2
17864;SDS011;9058;52.018;4.202;2023-05-07T00:01:35;51.92;;;34.08;;
17864;SDS011;9058;52.018;4.202;2023-05-07T00:04:01;48.00;;;33.60;;
17864;SDS011;9058;52.018;4.202;2023-05-07T00:06:28;47.45;;;33.40;;
17864;SDS011;9058;52.018;4.202;2023-05-07T00:08:55;47.58;;;33.03;;
17864;SDS011;9058;52.018;4.202;2023-05-07T00:11:22;50.45;;;34.28;;
17864;SDS011;9058;52.018;4.202;2023-05-07T00:13:49;47.90;;;33.67;;
17864;SDS011;9058;52.018;4.202;2023-05-07T00:16:16;46.75;;;33.50;;
17864;SDS011;9058;52.018;4.202;2023-05-07T00:18:42;43.40;;;32.33;;
17864;SDS011;9058;52.018;4.202;2023-05-07T00:21:09;48.97;;;33.38;;
17864;SDS011;9058;52.018;4.202;2023-05-07T00:23:35;51.97;;;33.78;;
17864;SDS011;9058;52.018;4.202;2023-05-07T00:26:02;51.85;;;33.30;;
17864;SDS011;9058;52.018;4.202;2023-05-07T00:28:29;47.83;;;33.17;;
17864;SDS011;9058;52.018;4.202;2023-05-07T00:30:56;48.05;;;33.97;;
17864;SDS011;9058;52.018;4.202;2023-05-07T00:33:23;52.55;;;35.53;;
17864;SDS011;9058;52.018;4.202;2023-05-07T00:35:51;50.58;;;33.78;;
17864;SDS011;9058;52.018;4.202;2023-05-07T00:38:19;47.67;;;33.40;;
17864;SDS011;9058;52.018;4.202;2023-05-07T00:40:45;52.97;;;35.35;;
17864;SDS011;9058;52.018;4.202;2023-05-07T00:43:12;48.22;;;35.50;;
17864;SDS011;9058;52.018;4.202;2023-05-07T00:45:40;50.90;;;36.20;;
17864;SDS011;9058;52.018;4.202;2023-05-07T00:48:07;51.70;;;35.75;;
17864;SDS011;9058;52.018;4.202;2023-05-07T00:50:34;46.05;;;33.85;;
17864;SDS011;9058;52.018;4.202;2023-05-07T00:53:00;50.08;;;34.85;;
17864;SDS011;9058;52.018;4.202;2023-05-07T00:55:27;51.80;;;33.45;;
17864;SDS011;9058;52.018;4.202;2023-05-07T00:57:53;47.53;;;34.20;;
17864;SDS011;9058;52.018;4.202;2023-05-07T01:00:21;47.45;;;33.72;;
17864;SDS011;9058;52.018;4.202;2023-05-07T01:02:47;48.50;;;33.28;;
17864;SDS011;9058;52.018;4.202;2023-05-07T01:05:15;47.03;;;33.28;;
17864;SDS011;9058;52.018;4.202;2023-05-07T01:07:42;44.88;;;32.47;;
17864;SDS011;9058;52.018;4.202;2023-05-07T01:10:09;48.92;;;33.92;;
17864;SDS011;9058;52.018;4.202;2023-05-07T01:12:36;46.10;;;32.97;;
17864;SDS011;9058;52.018;4.202;2023-05-07T01:15:03;46.03;;;33.55;;
17864;SDS011;9058;52.018;4.202;2023-05-07T01:17:32;45.50;;;32.88;;
17864;SDS011;9058;52.018;4.202;2023-05-07T01:20:00;45.05;;;32.97;;
17864;SDS011;9058;52.018;4.202;2023-05-07T01:22:31;43.65;;;31.85;;
17864;SDS011;9058;52.018;4.202;2023-05-07T01:24:58;46.60;;;31.63;;
17864;SDS011;9058;52.018;4.202;2023-05-07T01:27:24;48.60;;;32.20;;
17864;SDS011;9058;52.018;4.202;2023-05-07T01:29:51;46.88;;;33.65;;
17864;SDS011;9058;52.018;4.202;2023-05-07T01:32:17;44.15;;;32.80;;
17864;SDS011;9058;52.018;4.202;2023-05-07T01:34:45;40.88;;;31.02;;
17864;SDS011;9058;52.018;4.202;2023-05-07T01:37:12;40.20;;;29.75;;
17864;SDS011;9058;52.018;4.202;2023-05-07T01:39:41;41.80;;;30.25;;
17864;SDS011;9058;52.018;4.202;2023-05-07T01:42:08;42.45;;;31.25;;
17864;SDS011;9058;52.018;4.202;2023-05-07T01:44:34;43.33;;;30.90;;
17864;SDS011;9058;52.018;4.202;2023-05-07T01:47:01;46.80;;;31.38;;
17864;SDS011;9058;52.018;4.202;2023-05-07T01:49:28;42.15;;;33.28;;
17864;SDS011;9058;52.018;4.202;2023-05-07T01:51:54;42.95;;;31.17;;
17864;SDS011;9058;52.018;4.202;2023-05-07T01:54:24;43.83;;;32.53;;
17864;SDS011;9058;52.018;4.202;2023-05-07T01:56:55;43.10;;;31.08;;
17864;SDS011;9058;52.018;4.202;2023-05-07T01:59:22;42.15;;;31.15;;
17864;SDS011;9058;52.018;4.202;2023-05-07T02:01:48;40.20;;;31.90;;
17864;SDS011;9058;52.018;4.202;2023-05-07T02:04:14;42.88;;;30.48;;
17864;SDS011;9058;52.018;4.202;2023-05-07T02:06:42;39.45;;;29.73;;
17864;SDS011;9058;52.018;4.202;2023-05-07T02:09:08;38.88;;;28.17;;
17864;SDS011;9058;52.018;4.202;2023-05-07T02:11:35;39.40;;;28.50;;
17864;SDS011;9058;52.018;4.202;2023-05-07T02:14:03;34.40;;;27.75;;
17864;SDS011;9058;52.018;4.202;2023-05-07T02:16:29;38.63;;;30.05;;
17864;SDS011;9058;52.018;4.202;2023-05-07T02:18:56;37.97;;;27.85;;
17864;SDS011;9058;52.018;4.202;2023-05-07T02:21:23;39.22;;;27.55;;
17864;SDS011;9058;52.018;4.202;2023-05-07T02:23:50;32.55;;;25.45;;
17864;SDS011;9058;52.018;4.202;2023-05-07T02:26:16;33.70;;;26.65;;
17864;SDS011;9058;52.018;4.202;2023-05-07T02:28:43;30.45;;;25.13;;
17864;SDS011;9058;52.018;4.202;2023-05-07T02:31:11;30.23;;;24.55;;
17864;SDS011;9058;52.018;4.202;2023-05-07T02:33:38;30.05;;;24.52;;
17864;SDS011;9058;52.018;4.202;2023-05-07T02:36:05;31.90;;;25.48;;
17864;SDS011;9058;52.018;4.202;2023-05-07T02:38:31;29.17;;;24.77;;
17864;SDS011;9058;52.018;4.202;2023-05-07T02:40:58;30.02;;;24.50;;
17864;SDS011;9058;52.018;4.202;2023-05-07T02:43:24;28.23;;;24.25;;
17864;SDS011;9058;52.018;4.202;2023-05-07T02:45:59;30.48;;;24.42;;
17864;SDS011;9058;52.018;4.202;2023-05-07T02:48:27;29.55;;;24.10;;
17864;SDS011;9058;52.018;4.202;2023-05-07T02:50:55;27.83;;;23.88;;
17864;SDS011;9058;52.018;4.202;2023-05-07T02:53:21;29.90;;;22.98;;
17864;SDS011;9058;52.018;4.202;2023-05-07T02:55:51;27.60;;;22.23;;
17864;SDS011;9058;52.018;4.202;2023-05-07T02:58:17;28.30;;;23.27;;
17864;SDS011;9058;52.018;4.202;2023-05-07T03:00:43;27.30;;;23.92;;
17864;SDS011;9058;52.018;4.202;2023-05-07T03:03:10;28.20;;;23.42;;
17864;SDS011;9058;52.018;4.202;2023-05-07T03:05:39;26.85;;;24.00;;
17864;SDS011;9058;52.018;4.202;2023-05-07T03:08:05;27.27;;;23.17;;
17864;SDS011;9058;52.018;4.202;2023-05-07T03:10:32;29.63;;;24.30;;
17864;SDS011;9058;52.018;4.202;2023-05-07T03:12:58;29.08;;;23.65;;
17864;SDS011;9058;52.018;4.202;2023-05-07T03:15:24;27.08;;;24.13;;
17864;SDS011;9058;52.018;4.202;2023-05-07T03:17:51;27.35;;;23.48;;
17864;SDS011;9058;52.018;4.202;2023-05-07T03:20:17;29.85;;;25.33;;
17864;SDS011;9058;52.018;4.202;2023-05-07T03:22:45;30.58;;;24.80;;
17864;SDS011;9058;52.018;4.202;2023-05-07T03:25:11;32.88;;;25.38;;
17864;SDS011;9058;52.018;4.202;2023-05-07T03:27:39;31.13;;;25.13;;
17864;SDS011;9058;52.018;4.202;2023-05-07T03:30:07;31.48;;;26.35;;
17864;SDS011;9058;52.018;4.202;2023-05-07T03:32:33;34.20;;;25.83;;
17864;SDS011;9058;52.018;4.202;2023-05-07T03:35:00;33.58;;;25.10;;
17864;SDS011;9058;52.018;4.202;2023-05-07T03:37:27;30.20;;;25.70;;
17864;SDS011;9058;52.018;4.202;2023-05-07T03:39:55;31.40;;;26.02;;
17864;SDS011;9058;52.018;4.202;2023-05-07T03:42:21;28.75;;;24.90;;
17864;SDS011;9058;52.018;4.202;2023-05-07T03:44:48;31.45;;;26.50;;
17864;SDS011;9058;52.018;4.202;2023-05-07T03:47:14;29.95;;;26.52;;
17864;SDS011;9058;52.018;4.202;2023-05-07T03:49:40;32.70;;;27.70;;
17864;SDS011;9058;52.018;4.202;2023-05-07T03:52:07;32.05;;;26.88;;
17864;SDS011;9058;52.018;4.202;2023-05-07T03:54:33;30.88;;;27.52;;
17864;SDS011;9058;52.018;4.202;2023-05-07T03:57:01;34.47;;;26.92;;
17864;SDS011;9058;52.018;4.202;2023-05-07T03:59:27;30.15;;;26.85;;
17864;SDS011;9058;52.018;4.202;2023-05-07T04:01:53;31.13;;;26.77;;
17864;SDS011;9058;52.018;4.202;2023-05-07T04:04:20;31.40;;;26.42;;
17864;SDS011;9058;52.018;4.202;2023-05-07T04:06:46;30.30;;;27.08;;
17864;SDS011;9058;52.018;4.202;2023-05-07T04:09:12;30.92;;;26.40;;
17864;SDS011;9058;52.018;4.202;2023-05-07T04:11:40;30.67;;;27.38;;
17864;SDS011;9058;52.018;4.202;2023-05-07T04:14:07;29.13;;;25.83;;
17864;SDS011;9058;52.018;4.202;2023-05-07T04:16:34;30.38;;;27.17;;
17864;SDS011;9058;52.018;4.202;2023-05-07T04:19:00;30.02;;;26.77;;
17864;SDS011;9058;52.018;4.202;2023-05-07T04:21:28;30.58;;;26.10;;
17864;SDS011;9058;52.018;4.202;2023-05-07T04:23:55;30.00;;;26.33;;
17864;SDS011;9058;52.018;4.202;2023-05-07T04:26:22;29.38;;;25.42;;
17864;SDS011;9058;52.018;4.202;2023-05-07T04:28:49;28.73;;;25.73;;
17864;SDS011;9058;52.018;4.202;2023-05-07T04:31:17;28.15;;;25.23;;
17864;SDS011;9058;52.018;4.202;2023-05-07T04:33:43;28.83;;;25.80;;
17864;SDS011;9058;52.018;4.202;2023-05-07T04:36:10;29.02;;;25.77;;
17864;SDS011;9058;52.018;4.202;2023-05-07T04:38:36;28.05;;;25.17;;
17864;SDS011;9058;52.018;4.202;2023-05-07T04:41:04;28.63;;;25.33;;
17864;SDS011;9058;52.018;4.202;2023-05-07T04:43:31;29.33;;;25.27;;
17864;SDS011;9058;52.018;4.202;2023-05-07T04:45:57;30.15;;;24.63;;
17864;SDS011;9058;52.018;4.202;2023-05-07T04:48:27;27.05;;;24.15;;
17864;SDS011;9058;52.018;4.202;2023-05-07T04:50:54;27.60;;;24.70;;
17864;SDS011;9058;52.018;4.202;2023-05-07T04:53:20;27.30;;;24.48;;
17864;SDS011;9058;52.018;4.202;2023-05-07T04:55:47;28.67;;;25.75;;
17864;SDS011;9058;52.018;4.202;2023-05-07T04:58:13;27.77;;;24.75;;
17864;SDS011;9058;52.018;4.202;2023-05-07T05:00:40;27.30;;;24.52;;
17864;SDS011;9058;52.018;4.202;2023-05-07T05:03:07;26.40;;;23.80;;
17864;SDS011;9058;52.018;4.202;2023-05-07T05:05:35;24.65;;;22.10;;
17864;SDS011;9058;52.018;4.202;2023-05-07T05:08:01;25.83;;;23.13;;
17864;SDS011;9058;52.018;4.202;2023-05-07T05:10:28;25.20;;;22.50;;
17864;SDS011;9058;52.018;4.202;2023-05-07T05:12:54;26.00;;;23.35;;
17864;SDS011;9058;52.018;4.202;2023-05-07T05:15:20;25.05;;;22.45;;
17864;SDS011;9058;52.018;4.202;2023-05-07T05:17:47;25.23;;;22.80;;
17864;SDS011;9058;52.018;4.202;2023-05-07T05:20:13;24.65;;;22.13;;
17864;SDS011;9058;52.018;4.202;2023-05-07T05:22:42;24.75;;;22.25;;
17864;SDS011;9058;52.018;4.202;2023-05-07T05:25:08;25.17;;;22.58;;
17864;SDS011;9058;52.018;4.202;2023-05-07T05:27:35;25.20;;;22.38;;
17864;SDS011;9058;52.018;4.202;2023-05-07T05:30:01;24.30;;;22.00;;
17864;SDS011;9058;52.018;4.202;2023-05-07T05:32:27;22.40;;;20.15;;
17864;SDS011;9058;52.018;4.202;2023-05-07T05:34:54;23.33;;;20.95;;
17864;SDS011;9058;52.018;4.202;2023-05-07T05:37:20;22.50;;;20.10;;
17864;SDS011;9058;52.018;4.202;2023-05-07T05:39:48;22.02;;;19.92;;
17864;SDS011;9058;52.018;4.202;2023-05-07T05:42:15;21.88;;;19.70;;
17864;SDS011;9058;52.018;4.202;2023-05-07T05:44:41;20.92;;;18.85;;
17864;SDS011;9058;52.018;4.202;2023-05-07T05:47:08;20.63;;;18.52;;
17864;SDS011;9058;52.018;4.202;2023-05-07T05:49:34;21.45;;;19.10;;
17864;SDS011;9058;52.018;4.202;2023-05-07T05:52:02;22.13;;;19.75;;
17864;SDS011;9058;52.018;4.202;2023-05-07T05:54:30;20.60;;;18.70;;
17864;SDS011;9058;52.018;4.202;2023-05-07T05:56:57;21.08;;;18.70;;
17864;SDS011;9058;52.018;4.202;2023-05-07T05:59:24;20.30;;;18.17;;
17864;SDS011;9058;52.018;4.202;2023-05-07T06:01:50;20.55;;;18.45;;
17864;SDS011;9058;52.018;4.202;2023-05-07T06:04:17;19.95;;;17.85;;
17864;SDS011;9058;52.018;4.202;2023-05-07T06:06:43;19.15;;;17.33;;
17864;SDS011;9058;52.018;4.202;2023-05-07T06:09:10;19.33;;;17.52;;
17864;SDS011;9058;52.018;4.202;2023-05-07T06:11:36;19.15;;;17.23;;
17864;SDS011;9058;52.018;4.202;2023-05-07T06:14:04;19.75;;;17.85;;
17864;SDS011;9058;52.018;4.202;2023-05-07T06:16:34;18.60;;;16.83;;
17864;SDS011;9058;52.018;4.202;2023-05-07T06:19:02;18.85;;;17.05;;
17864;SDS011;9058;52.018;4.202;2023-05-07T06:21:29;19.60;;;17.60;;
17864;SDS011;9058;52.018;4.202;2023-05-07T06:23:55;19.02;;;17.23;;
17864;SDS011;9058;52.018;4.202;2023-05-07T06:26:21;19.80;;;17.85;;
17864;SDS011;9058;52.018;4.202;2023-05-07T06:28:48;20.35;;;17.48;;
17864;SDS011;9058;52.018;4.202;2023-05-07T06:31:16;17.48;;;15.50;;
17864;SDS011;9058;52.018;4.202;2023-05-07T06:33:45;17.98;;;16.20;;
17864;SDS011;9058;52.018;4.202;2023-05-07T06:36:12;17.70;;;15.98;;
17864;SDS011;9058;52.018;4.202;2023-05-07T06:38:38;17.38;;;15.77;;
17864;SDS011;9058;52.018;4.202;2023-05-07T06:41:05;17.30;;;15.60;;
17864;SDS011;9058;52.018;4.202;2023-05-07T06:43:31;16.25;;;14.63;;
17864;SDS011;9058;52.018;4.202;2023-05-07T06:45:58;16.05;;;14.55;;
17864;SDS011;9058;52.018;4.202;2023-05-07T06:48:26;16.58;;;15.07;;
17864;SDS011;9058;52.018;4.202;2023-05-07T06:50:52;15.95;;;14.32;;
17864;SDS011;9058;52.018;4.202;2023-05-07T06:53:20;15.98;;;14.30;;
17864;SDS011;9058;52.018;4.202;2023-05-07T06:55:47;15.60;;;14.00;;
17864;SDS011;9058;52.018;4.202;2023-05-07T06:58:13;15.50;;;13.90;;
17864;SDS011;9058;52.018;4.202;2023-05-07T07:00:41;14.75;;;13.25;;
17864;SDS011;9058;52.018;4.202;2023-05-07T07:03:07;15.60;;;14.02;;
17864;SDS011;9058;52.018;4.202;2023-05-07T07:05:35;13.55;;;12.23;;
17864;SDS011;9058;52.018;4.202;2023-05-07T07:08:01;13.95;;;12.60;;
17864;SDS011;9058;52.018;4.202;2023-05-07T07:10:27;15.05;;;13.45;;
17864;SDS011;9058;52.018;4.202;2023-05-07T07:12:54;14.30;;;12.88;;
17864;SDS011;9058;52.018;4.202;2023-05-07T07:15:20;15.48;;;13.80;;
17864;SDS011;9058;52.018;4.202;2023-05-07T07:17:47;13.65;;;12.45;;
17864;SDS011;9058;52.018;4.202;2023-05-07T07:20:13;14.57;;;13.23;;
17864;SDS011;9058;52.018;4.202;2023-05-07T07:22:41;13.02;;;11.80;;
17864;SDS011;9058;52.018;4.202;2023-05-07T07:25:08;13.48;;;12.13;;
17864;SDS011;9058;52.018;4.202;2023-05-07T07:27:36;12.95;;;11.63;;
17864;SDS011;9058;52.018;4.202;2023-05-07T07:30:02;11.40;;;10.20;;
17864;SDS011;9058;52.018;4.202;2023-05-07T07:32:29;11.77;;;10.57;;
17864;SDS011;9058;52.018;4.202;2023-05-07T07:34:57;11.50;;;10.40;;
17864;SDS011;9058;52.018;4.202;2023-05-07T07:37:23;11.73;;;10.57;;
17864;SDS011;9058;52.018;4.202;2023-05-07T07:39:52;12.68;;;10.25;;
17864;SDS011;9058;52.018;4.202;2023-05-07T07:42:18;11.98;;;10.70;;
17864;SDS011;9058;52.018;4.202;2023-05-07T07:44:44;12.27;;;10.05;;
17864;SDS011;9058;52.018;4.202;2023-05-07T07:47:11;12.20;;;11.00;;
17864;SDS011;9058;52.018;4.202;2023-05-07T07:49:37;12.70;;;11.45;;
17864;SDS011;9058;52.018;4.202;2023-05-07T07:52:04;13.88;;;12.00;;
17864;SDS011;9058;52.018;4.202;2023-05-07T07:54:30;12.73;;;11.52;;
17864;SDS011;9058;52.018;4.202;2023-05-07T07:56:58;12.00;;;10.57;;
17864;SDS011;9058;52.018;4.202;2023-05-07T07:59:26;11.45;;;10.25;;
17864;SDS011;9058;52.018;4.202;2023-05-07T08:01:52;11.63;;;9.25;;
17864;SDS011;9058;52.018;4.202;2023-05-07T08:04:21;10.45;;;9.35;;
17864;SDS011;9058;52.018;4.202;2023-05-07T08:06:48;12.65;;;9.95;;
17864;SDS011;9058;52.018;4.202;2023-05-07T08:09:14;12.95;;;10.55;;
17864;SDS011;9058;52.018;4.202;2023-05-07T08:11:41;10.88;;;8.98;;
17864;SDS011;9058;52.018;4.202;2023-05-07T08:14:09;12.25;;;8.98;;
17864;SDS011;9058;52.018;4.202;2023-05-07T08:16:35;10.50;;;8.10;;
17864;SDS011;9058;52.018;4.202;2023-05-07T08:19:02;11.25;;;8.38;;
17864;SDS011;9058;52.018;4.202;2023-05-07T08:21:28;12.15;;;9.05;;
17864;SDS011;9058;52.018;4.202;2023-05-07T08:23:55;9.98;;;8.43;;
17864;SDS011;9058;52.018;4.202;2023-05-07T08:26:22;16.52;;;8.30;;
17864;SDS011;9058;52.018;4.202;2023-05-07T08:28:48;13.55;;;8.68;;
17864;SDS011;9058;52.018;4.202;2023-05-07T08:31:16;10.65;;;8.00;;
17864;SDS011;9058;52.018;4.202;2023-05-07T08:33:42;11.43;;;8.50;;
17864;SDS011;9058;52.018;4.202;2023-05-07T08:36:09;10.55;;;7.82;;
17864;SDS011;9058;52.018;4.202;2023-05-07T08:38:35;10.50;;;7.60;;
17864;SDS011;9058;52.018;4.202;2023-05-07T08:41:02;15.45;;;8.45;;
17864;SDS011;9058;52.018;4.202;2023-05-07T08:43:28;17.92;;;8.27;;
17864;SDS011;9058;52.018;4.202;2023-05-07T08:45:57;11.50;;;6.72;;
17864;SDS011;9058;52.018;4.202;2023-05-07T08:48:27;11.52;;;7.47;;
17864;SDS011;9058;52.018;4.202;2023-05-07T08:50:55;10.23;;;5.55;;
17864;SDS011;9058;52.018;4.202;2023-05-07T08:53:22;12.75;;;6.65;;
17864;SDS011;9058;52.018;4.202;2023-05-07T08:55:48;10.48;;;6.75;;
17864;SDS011;9058;52.018;4.202;2023-05-07T08:58:15;9.85;;;6.43;;
17864;SDS011;9058;52.018;4.202;2023-05-07T09:00:41;9.40;;;7.30;;
17864;SDS011;9058;52.018;4.202;2023-05-07T09:03:08;11.30;;;7.10;;
17864;SDS011;9058;52.018;4.202;2023-05-07T09:05:38;8.48;;;6.53;;
17864;SDS011;9058;52.018;4.202;2023-05-07T09:08:05;11.07;;;6.38;;
17864;SDS011;9058;52.018;4.202;2023-05-07T09:10:32;12.07;;;8.10;;
17864;SDS011;9058;52.018;4.202;2023-05-07T09:12:59;9.05;;;8.15;;
17864;SDS011;9058;52.018;4.202;2023-05-07T09:15:25;10.10;;;7.53;;
17864;SDS011;9058;52.018;4.202;2023-05-07T09:17:52;12.02;;;7.90;;
17864;SDS011;9058;52.018;4.202;2023-05-07T09:20:18;12.23;;;9.05;;
17864;SDS011;9058;52.018;4.202;2023-05-07T09:22:46;11.50;;;8.52;;
17864;SDS011;9058;52.018;4.202;2023-05-07T09:25:16;12.55;;;9.25;;
17864;SDS011;9058;52.018;4.202;2023-05-07T09:27:53;11.32;;;9.40;;
17864;SDS011;9058;52.018;4.202;2023-05-07T09:30:19;14.05;;;9.50;;
17864;SDS011;9058;52.018;4.202;2023-05-07T09:32:46;14.60;;;9.63;;
17864;SDS011;9058;52.018;4.202;2023-05-07T09:35:14;13.73;;;10.20;;
17864;SDS011;9058;52.018;4.202;2023-05-07T09:37:41;14.80;;;10.40;;
17864;SDS011;9058;52.018;4.202;2023-05-07T09:40:10;14.15;;;10.98;;
17864;SDS011;9058;52.018;4.202;2023-05-07T09:42:46;13.05;;;9.95;;
17864;SDS011;9058;52.018;4.202;2023-05-07T09:45:13;14.38;;;10.45;;
17864;SDS011;9058;52.018;4.202;2023-05-07T09:47:39;10.73;;;8.65;;
17864;SDS011;9058;52.018;4.202;2023-05-07T09:50:09;9.38;;;5.63;;
17864;SDS011;9058;52.018;4.202;2023-05-07T09:52:36;8.77;;;5.28;;
17864;SDS011;9058;52.018;4.202;2023-05-07T09:55:05;14.68;;;8.60;;
17864;SDS011;9058;52.018;4.202;2023-05-07T09:57:34;11.32;;;8.20;;
17864;SDS011;9058;52.018;4.202;2023-05-07T10:00:02;12.07;;;10.00;;
17864;SDS011;9058;52.018;4.202;2023-05-07T10:02:30;11.80;;;7.78;;
17864;SDS011;9058;52.018;4.202;2023-05-07T10:04:57;11.15;;;8.70;;
17864;SDS011;9058;52.018;4.202;2023-05-07T10:07:25;13.68;;;10.65;;
17864;SDS011;9058;52.018;4.202;2023-05-07T10:09:52;14.30;;;11.55;;
17864;SDS011;9058;52.018;4.202;2023-05-07T10:12:20;13.13;;;10.43;;
17864;SDS011;9058;52.018;4.202;2023-05-07T10:14:48;10.48;;;7.78;;
17864;SDS011;9058;52.018;4.202;2023-05-07T10:17:16;9.00;;;6.32;;
17864;SDS011;9058;52.018;4.202;2023-05-07T10:19:43;10.88;;;5.43;;
17864;SDS011;9058;52.018;4.202;2023-05-07T10:22:10;8.25;;;3.92;;
17864;SDS011;9058;52.018;4.202;2023-05-07T10:24:38;8.35;;;5.22;;
17864;SDS011;9058;52.018;4.202;2023-05-07T10:27:05;11.98;;;5.40;;
17864;SDS011;9058;52.018;4.202;2023-05-07T10:32:24;12.60;;;7.10;;
17864;SDS011;9058;52.018;4.202;2023-05-07T10:34:56;13.43;;;8.20;;
17864;SDS011;9058;52.018;4.202;2023-05-07T10:37:26;10.75;;;8.23;;
17864;SDS011;9058;52.018;4.202;2023-05-07T10:39:53;17.23;;;9.05;;
17864;SDS011;9058;52.018;4.202;2023-05-07T10:42:20;14.23;;;8.25;;
17864;SDS011;9058;52.018;4.202;2023-05-07T10:44:46;12.57;;;8.52;;
17864;SDS011;9058;52.018;4.202;2023-05-07T10:47:14;13.75;;;7.85;;
17864;SDS011;9058;52.018;4.202;2023-05-07T10:52:29;14.23;;;8.57;;
17864;SDS011;9058;52.018;4.202;2023-05-07T10:57:56;13.07;;;9.07;;
17864;SDS011;9058;52.018;4.202;2023-05-07T11:00:41;16.15;;;10.85;;
17864;SDS011;9058;52.018;4.202;2023-05-07T11:03:07;13.85;;;12.10;;
17864;SDS011;9058;52.018;4.202;2023-05-07T11:05:34;15.05;;;13.55;;
17864;SDS011;9058;52.018;4.202;2023-05-07T11:08:02;17.70;;;14.77;;
17864;SDS011;9058;52.018;4.202;2023-05-07T11:13:10;16.00;;;13.20;;
17864;SDS011;9058;52.018;4.202;2023-05-07T11:15:37;16.50;;;13.45;;
17864;SDS011;9058;52.018;4.202;2023-05-07T11:18:06;17.55;;;13.95;;
17864;SDS011;9058;52.018;4.202;2023-05-07T11:20:44;16.77;;;14.88;;
17864;SDS011;9058;52.018;4.202;2023-05-07T11:23:21;18.45;;;14.55;;
17864;SDS011;9058;52.018;4.202;2023-05-07T11:26:08;16.17;;;14.60;;
17864;SDS011;9058;52.018;4.202;2023-05-07T11:28:36;19.88;;;15.80;;
17864;SDS011;9058;52.018;4.202;2023-05-07T11:31:03;19.05;;;15.18;;
17864;SDS011;9058;52.018;4.202;2023-05-07T11:33:29;18.90;;;15.80;;
17864;SDS011;9058;52.018;4.202;2023-05-07T11:35:56;19.65;;;17.58;;
17864;SDS011;9058;52.018;4.202;2023-05-07T11:38:24;19.05;;;17.05;;
17864;SDS011;9058;52.018;4.202;2023-05-07T11:40:51;22.67;;;17.42;;
17864;SDS011;9058;52.018;4.202;2023-05-07T11:43:20;19.05;;;17.20;;
17864;SDS011;9058;52.018;4.202;2023-05-07T11:45:46;21.40;;;18.48;;
17864;SDS011;9058;52.018;4.202;2023-05-07T11:48:14;19.70;;;17.50;;
17864;SDS011;9058;52.018;4.202;2023-05-07T11:50:49;20.80;;;17.67;;
17864;SDS011;9058;52.018;4.202;2023-05-07T11:53:16;20.85;;;18.70;;
17864;SDS011;9058;52.018;4.202;2023-05-07T11:55:45;23.08;;;18.45;;
17864;SDS011;9058;52.018;4.202;2023-05-07T11:58:12;22.27;;;18.33;;
17864;SDS011;9058;52.018;4.202;2023-05-07T12:00:39;22.65;;;18.23;;
17864;SDS011;9058;52.018;4.202;2023-05-07T12:03:14;20.17;;;17.38;;
17864;SDS011;9058;52.018;4.202;2023-05-07T12:05:40;22.83;;;17.23;;
17864;SDS011;9058;52.018;4.202;2023-05-07T12:08:07;20.67;;;18.42;;
17864;SDS011;9058;52.018;4.202;2023-05-07T12:10:34;20.52;;;17.63;;
17864;SDS011;9058;52.018;4.202;2023-05-07T12:13:02;20.42;;;17.38;;
17864;SDS011;9058;52.018;4.202;2023-05-07T12:15:29;19.30;;;17.45;;
17864;SDS011;9058;52.018;4.202;2023-05-07T12:17:55;21.85;;;19.00;;
17864;SDS011;9058;52.018;4.202;2023-05-07T12:20:21;25.98;;;20.13;;
17864;SDS011;9058;52.018;4.202;2023-05-07T12:22:48;22.02;;;18.98;;
17864;SDS011;9058;52.018;4.202;2023-05-07T12:25:18;22.25;;;19.83;;
17864;SDS011;9058;52.018;4.202;2023-05-07T12:27:45;21.73;;;19.42;;
17864;SDS011;9058;52.018;4.202;2023-05-07T12:30:18;25.00;;;21.00;;
17864;SDS011;9058;52.018;4.202;2023-05-07T12:32:45;21.88;;;19.73;;
17864;SDS011;9058;52.018;4.202;2023-05-07T12:35:12;24.40;;;19.10;;
17864;SDS011;9058;52.018;4.202;2023-05-07T12:37:39;24.08;;;18.65;;
17864;SDS011;9058;52.018;4.202;2023-05-07T12:40:08;26.17;;;20.13;;
17864;SDS011;9058;52.018;4.202;2023-05-07T12:42:37;24.10;;;19.67;;
17864;SDS011;9058;52.018;4.202;2023-05-07T12:45:08;23.73;;;19.85;;
17864;SDS011;9058;52.018;4.202;2023-05-07T12:47:37;20.70;;;18.60;;
17864;SDS011;9058;52.018;4.202;2023-05-07T12:50:05;21.55;;;19.23;;
17864;SDS011;9058;52.018;4.202;2023-05-07T12:52:32;22.45;;;20.10;;
17864;SDS011;9058;52.018;4.202;2023-05-07T12:55:04;22.13;;;18.33;;
17864;SDS011;9058;52.018;4.202;2023-05-07T12:57:38;20.02;;;17.92;;
17864;SDS011;9058;52.018;4.202;2023-05-07T13:00:06;22.02;;;18.80;;
17864;SDS011;9058;52.018;4.202;2023-05-07T13:02:37;20.00;;;17.88;;
17864;SDS011;9058;52.018;4.202;2023-05-07T13:05:06;22.48;;;18.00;;
17864;SDS011;9058;52.018;4.202;2023-05-07T13:07:32;22.38;;;17.35;;
17864;SDS011;9058;52.018;4.202;2023-05-07T13:09:59;25.08;;;18.25;;
17864;SDS011;9058;52.018;4.202;2023-05-07T13:12:26;21.58;;;17.83;;
17864;SDS011;9058;52.018;4.202;2023-05-07T13:14:58;25.20;;;19.83;;
17864;SDS011;9058;52.018;4.202;2023-05-07T13:17:25;21.15;;;17.90;;
17864;SDS011;9058;52.018;4.202;2023-05-07T13:19:52;23.75;;;18.05;;
17864;SDS011;9058;52.018;4.202;2023-05-07T13:22:19;23.00;;;16.38;;
17864;SDS011;9058;52.018;4.202;2023-05-07T13:24:47;24.92;;;17.13;;
17864;SDS011;9058;52.018;4.202;2023-05-07T13:27:14;19.95;;;16.17;;
17864;SDS011;9058;52.018;4.202;2023-05-07T13:29:40;20.33;;;17.25;;
17864;SDS011;9058;52.018;4.202;2023-05-07T13:32:07;27.08;;;18.45;;
17864;SDS011;9058;52.018;4.202;2023-05-07T13:34:34;20.23;;;18.27;;
17864;SDS011;9058;52.018;4.202;2023-05-07T13:37:02;20.80;;;18.10;;
17864;SDS011;9058;52.018;4.202;2023-05-07T13:39:29;25.02;;;18.92;;
17864;SDS011;9058;52.018;4.202;2023-05-07T13:41:56;25.02;;;19.00;;
17864;SDS011;9058;52.018;4.202;2023-05-07T13:44:23;32.88;;;22.08;;
17864;SDS011;9058;52.018;4.202;2023-05-07T13:46:49;23.67;;;19.83;;
17864;SDS011;9058;52.018;4.202;2023-05-07T13:49:16;22.42;;;18.50;;
17864;SDS011;9058;52.018;4.202;2023-05-07T13:51:42;23.77;;;18.75;;
17864;SDS011;9058;52.018;4.202;2023-05-07T13:54:09;21.73;;;19.00;;
17864;SDS011;9058;52.018;4.202;2023-05-07T13:56:38;22.52;;;18.50;;
17864;SDS011;9058;52.018;4.202;2023-05-07T13:59:04;21.65;;;18.55;;
17864;SDS011;9058;52.018;4.202;2023-05-07T14:01:31;22.33;;;16.98;;
17864;SDS011;9058;52.018;4.202;2023-05-07T14:03:57;22.75;;;15.48;;
17864;SDS011;9058;52.018;4.202;2023-05-07T14:06:24;23.38;;;16.13;;
17864;SDS011;9058;52.018;4.202;2023-05-07T14:08:51;20.08;;;16.42;;
17864;SDS011;9058;52.018;4.202;2023-05-07T14:11:17;26.02;;;18.25;;
17864;SDS011;9058;52.018;4.202;2023-05-07T14:13:45;20.83;;;18.63;;
17864;SDS011;9058;52.018;4.202;2023-05-07T14:16:11;23.08;;;19.38;;
17864;SDS011;9058;52.018;4.202;2023-05-07T14:18:38;22.98;;;19.08;;
17864;SDS011;9058;52.018;4.202;2023-05-07T14:21:04;26.55;;;21.00;;
17864;SDS011;9058;52.018;4.202;2023-05-07T14:23:32;28.63;;;23.40;;
17864;SDS011;9058;52.018;4.202;2023-05-07T14:25:59;30.75;;;24.23;;
17864;SDS011;9058;52.018;4.202;2023-05-07T14:28:25;30.25;;;24.08;;
17864;SDS011;9058;52.018;4.202;2023-05-07T14:30:53;25.55;;;22.70;;
17864;SDS011;9058;52.018;4.202;2023-05-07T14:33:19;30.63;;;24.40;;
17864;SDS011;9058;52.018;4.202;2023-05-07T14:35:46;30.40;;;23.73;;
17864;SDS011;9058;52.018;4.202;2023-05-07T14:38:13;31.15;;;22.98;;
17864;SDS011;9058;52.018;4.202;2023-05-07T14:40:40;32.63;;;22.92;;
17864;SDS011;9058;52.018;4.202;2023-05-07T14:43:06;27.90;;;20.73;;
17864;SDS011;9058;52.018;4.202;2023-05-07T14:45:33;27.85;;;21.42;;
17864;SDS011;9058;52.018;4.202;2023-05-07T14:48:02;29.85;;;20.80;;
17864;SDS011;9058;52.018;4.202;2023-05-07T14:50:28;24.83;;;19.45;;